sensor_id;sensor_type;location;lat;lon;timestamp;temperature;humidity
12089;DHT22;6107;49.078;8.578;2022-08-19T00:01:40;21.50;92.30
12089;DHT22;6107;49.078;8.578;2022-08-19T00:04:08;21.50;92.40
12089;DHT22;6107;49.078;8.578;2022-08-19T00:06:35;21.60;92.30
12089;DHT22;6107;49.078;8.578;2022-08-19T00:09:04;21.60;92.20
12089;DHT22;6107;49.078;8.578;2022-08-19T00:11:30;21.60;92.30
12089;DHT22;6107;49.078;8.578;2022-08-19T00:13:56;21.60;92.30
12089;DHT22;6107;49.078;8.578;2022-08-19T00:16:23;21.50;92.60
12089;DHT22;6107;49.078;8.578;2022-08-19T00:18:49;21.60;92.40
12089;DHT22;6107;49.078;8.578;2022-08-19T00:21:15;21.50;92.40
12089;DHT22;6107;49.078;8.578;2022-08-19T00:23:41;21.30;92.70
12089;DHT22;6107;49.078;8.578;2022-08-19T00:26:07;21.40;92.70
12089;DHT22;6107;49.078;8.578;2022-08-19T00:28:33;21.40;92.60
12089;DHT22;6107;49.078;8.578;2022-08-19T00:31:02;21.50;92.50
12089;DHT22;6107;49.078;8.578;2022-08-19T00:33:28;21.50;92.40
12089;DHT22;6107;49.078;8.578;2022-08-19T00:36:01;21.40;92.50
12089;DHT22;6107;49.078;8.578;2022-08-19T00:38:30;21.40;92.70
12089;DHT22;6107;49.078;8.578;2022-08-19T00:40:56;21.40;92.60
12089;DHT22;6107;49.078;8.578;2022-08-19T00:43:24;21.40;92.70
12089;DHT22;6107;49.078;8.578;2022-08-19T00:45:51;21.50;92.60
12089;DHT22;6107;49.078;8.578;2022-08-19T00:48:17;21.50;92.50
12089;DHT22;6107;49.078;8.578;2022-08-19T00:50:44;21.40;92.40
12089;DHT22;6107;49.078;8.578;2022-08-19T00:53:12;21.50;92.50
12089;DHT22;6107;49.078;8.578;2022-08-19T00:55:41;21.40;92.40
12089;DHT22;6107;49.078;8.578;2022-08-19T00:58:11;21.40;92.50
12089;DHT22;6107;49.078;8.578;2022-08-19T01:00:38;21.40;92.50
12089;DHT22;6107;49.078;8.578;2022-08-19T01:03:09;21.50;92.60
12089;DHT22;6107;49.078;8.578;2022-08-19T01:05:36;21.40;92.50
12089;DHT22;6107;49.078;8.578;2022-08-19T01:08:04;21.50;92.70
12089;DHT22;6107;49.078;8.578;2022-08-19T01:10:36;21.30;92.50
12089;DHT22;6107;49.078;8.578;2022-08-19T01:13:03;21.20;93.00
12089;DHT22;6107;49.078;8.578;2022-08-19T01:15:35;21.20;92.90
12089;DHT22;6107;49.078;8.578;2022-08-19T01:18:10;21.20;93.00
12089;DHT22;6107;49.078;8.578;2022-08-19T01:20:36;21.30;92.60
12089;DHT22;6107;49.078;8.578;2022-08-19T01:23:02;21.30;92.60
12089;DHT22;6107;49.078;8.578;2022-08-19T01:25:32;21.40;92.40
12089;DHT22;6107;49.078;8.578;2022-08-19T01:27:58;21.40;92.40
12089;DHT22;6107;49.078;8.578;2022-08-19T01:30:28;21.50;92.60
12089;DHT22;6107;49.078;8.578;2022-08-19T01:32:54;21.50;92.60
12089;DHT22;6107;49.078;8.578;2022-08-19T01:35:21;21.50;92.70
12089;DHT22;6107;49.078;8.578;2022-08-19T01:37:57;21.50;92.90
12089;DHT22;6107;49.078;8.578;2022-08-19T01:40:26;21.50;92.70
12089;DHT22;6107;49.078;8.578;2022-08-19T01:42:54;21.50;92.80
12089;DHT22;6107;49.078;8.578;2022-08-19T01:45:22;21.50;92.80
12089;DHT22;6107;49.078;8.578;2022-08-19T01:47:47;21.40;92.70
12089;DHT22;6107;49.078;8.578;2022-08-19T01:50:14;21.40;92.80
12089;DHT22;6107;49.078;8.578;2022-08-19T01:52:41;21.40;92.70
12089;DHT22;6107;49.078;8.578;2022-08-19T01:55:10;21.40;92.60
12089;DHT22;6107;49.078;8.578;2022-08-19T01:57:37;21.40;92.70
12089;DHT22;6107;49.078;8.578;2022-08-19T02:00:08;21.40;92.80
12089;DHT22;6107;49.078;8.578;2022-08-19T02:02:34;21.30;92.80
12089;DHT22;6107;49.078;8.578;2022-08-19T02:05:00;21.30;92.80
12089;DHT22;6107;49.078;8.578;2022-08-19T02:07:25;21.30;92.60
12089;DHT22;6107;49.078;8.578;2022-08-19T02:09:53;21.30;92.90
12089;DHT22;6107;49.078;8.578;2022-08-19T02:12:20;21.40;92.90
12089;DHT22;6107;49.078;8.578;2022-08-19T02:14:46;21.40;92.80
12089;DHT22;6107;49.078;8.578;2022-08-19T02:17:11;21.30;92.60
12089;DHT22;6107;49.078;8.578;2022-08-19T02:19:37;21.40;92.80
12089;DHT22;6107;49.078;8.578;2022-08-19T02:22:02;21.40;92.70
12089;DHT22;6107;49.078;8.578;2022-08-19T02:24:28;21.30;93.00
12089;DHT22;6107;49.078;8.578;2022-08-19T02:26:53;21.30;93.10
12089;DHT22;6107;49.078;8.578;2022-08-19T02:29:19;21.30;93.30
12089;DHT22;6107;49.078;8.578;2022-08-19T02:31:45;21.20;93.20
12089;DHT22;6107;49.078;8.578;2022-08-19T02:34:11;21.20;93.40
12089;DHT22;6107;49.078;8.578;2022-08-19T02:36:36;21.20;93.50
12089;DHT22;6107;49.078;8.578;2022-08-19T02:39:02;21.20;93.50
12089;DHT22;6107;49.078;8.578;2022-08-19T02:41:32;21.20;93.60
12089;DHT22;6107;49.078;8.578;2022-08-19T02:43:59;21.20;93.70
12089;DHT22;6107;49.078;8.578;2022-08-19T02:46:28;21.20;93.70
12089;DHT22;6107;49.078;8.578;2022-08-19T02:49:01;21.20;93.80
12089;DHT22;6107;49.078;8.578;2022-08-19T02:51:31;21.20;93.80
12089;DHT22;6107;49.078;8.578;2022-08-19T02:53:57;21.10;93.90
12089;DHT22;6107;49.078;8.578;2022-08-19T02:56:24;21.10;93.80
12089;DHT22;6107;49.078;8.578;2022-08-19T02:58:50;21.20;94.00
12089;DHT22;6107;49.078;8.578;2022-08-19T03:01:27;21.20;94.00
12089;DHT22;6107;49.078;8.578;2022-08-19T03:03:54;21.20;94.10
12089;DHT22;6107;49.078;8.578;2022-08-19T03:06:21;21.00;94.20
12089;DHT22;6107;49.078;8.578;2022-08-19T03:08:47;21.10;94.10
12089;DHT22;6107;49.078;8.578;2022-08-19T03:11:21;21.00;94.10
12089;DHT22;6107;49.078;8.578;2022-08-19T03:13:47;20.80;94.30
12089;DHT22;6107;49.078;8.578;2022-08-19T03:16:14;20.80;94.50
12089;DHT22;6107;49.078;8.578;2022-08-19T03:18:40;20.80;94.40
12089;DHT22;6107;49.078;8.578;2022-08-19T03:21:06;20.80;94.40
12089;DHT22;6107;49.078;8.578;2022-08-19T03:23:32;20.70;94.60
12089;DHT22;6107;49.078;8.578;2022-08-19T03:25:57;20.80;94.60
12089;DHT22;6107;49.078;8.578;2022-08-19T03:28:23;20.80;94.40
12089;DHT22;6107;49.078;8.578;2022-08-19T03:30:57;20.70;94.70
12089;DHT22;6107;49.078;8.578;2022-08-19T03:33:23;20.70;94.60
12089;DHT22;6107;49.078;8.578;2022-08-19T03:36:00;20.70;94.60
12089;DHT22;6107;49.078;8.578;2022-08-19T03:38:26;20.70;94.60
12089;DHT22;6107;49.078;8.578;2022-08-19T03:40:52;20.80;94.80
12089;DHT22;6107;49.078;8.578;2022-08-19T03:43:17;20.80;94.80
12089;DHT22;6107;49.078;8.578;2022-08-19T03:45:43;20.70;94.80
12089;DHT22;6107;49.078;8.578;2022-08-19T03:48:09;20.70;94.90
12089;DHT22;6107;49.078;8.578;2022-08-19T03:50:39;20.60;95.00
12089;DHT22;6107;49.078;8.578;2022-08-19T03:53:04;20.70;95.10
12089;DHT22;6107;49.078;8.578;2022-08-19T03:55:30;20.70;95.10
12089;DHT22;6107;49.078;8.578;2022-08-19T03:57:55;20.70;95.20
12089;DHT22;6107;49.078;8.578;2022-08-19T04:00:21;20.70;95.10
12089;DHT22;6107;49.078;8.578;2022-08-19T04:02:47;20.70;95.20
12089;DHT22;6107;49.078;8.578;2022-08-19T04:05:12;20.70;95.10
12089;DHT22;6107;49.078;8.578;2022-08-19T04:07:39;20.70;95.10
12089;DHT22;6107;49.078;8.578;2022-08-19T04:10:05;20.70;95.10
12089;DHT22;6107;49.078;8.578;2022-08-19T04:12:31;20.70;95.10
12089;DHT22;6107;49.078;8.578;2022-08-19T04:14:56;20.60;95.40
12089;DHT22;6107;49.078;8.578;2022-08-19T04:17:23;20.60;95.60
12089;DHT22;6107;49.078;8.578;2022-08-19T04:19:49;20.50;95.80
12089;DHT22;6107;49.078;8.578;2022-08-19T04:22:15;20.50;96.10
12089;DHT22;6107;49.078;8.578;2022-08-19T04:24:40;20.50;96.10
12089;DHT22;6107;49.078;8.578;2022-08-19T04:27:06;20.60;96.00
12089;DHT22;6107;49.078;8.578;2022-08-19T04:29:32;20.60;96.10
12089;DHT22;6107;49.078;8.578;2022-08-19T04:31:59;20.50;96.10
12089;DHT22;6107;49.078;8.578;2022-08-19T04:34:26;20.60;96.10
12089;DHT22;6107;49.078;8.578;2022-08-19T04:36:55;20.60;96.10
12089;DHT22;6107;49.078;8.578;2022-08-19T04:39:23;20.60;95.90
12089;DHT22;6107;49.078;8.578;2022-08-19T04:42:09;20.70;96.00
12089;DHT22;6107;49.078;8.578;2022-08-19T04:44:54;20.70;96.20
12089;DHT22;6107;49.078;8.578;2022-08-19T04:47:19;20.70;96.50
12089;DHT22;6107;49.078;8.578;2022-08-19T04:49:45;20.70;96.20
12089;DHT22;6107;49.078;8.578;2022-08-19T04:52:11;20.80;96.50
12089;DHT22;6107;49.078;8.578;2022-08-19T04:54:36;20.80;96.00
12089;DHT22;6107;49.078;8.578;2022-08-19T04:57:02;20.80;96.40
12089;DHT22;6107;49.078;8.578;2022-08-19T04:59:31;20.80;96.30
12089;DHT22;6107;49.078;8.578;2022-08-19T05:01:57;20.90;96.20
12089;DHT22;6107;49.078;8.578;2022-08-19T05:04:23;20.90;96.20
12089;DHT22;6107;49.078;8.578;2022-08-19T05:06:48;20.90;96.20
12089;DHT22;6107;49.078;8.578;2022-08-19T05:09:15;20.90;96.30
12089;DHT22;6107;49.078;8.578;2022-08-19T05:11:41;20.90;96.00
12089;DHT22;6107;49.078;8.578;2022-08-19T05:14:07;20.90;95.70
12089;DHT22;6107;49.078;8.578;2022-08-19T05:16:33;20.90;95.80
12089;DHT22;6107;49.078;8.578;2022-08-19T05:18:59;20.90;95.70
12089;DHT22;6107;49.078;8.578;2022-08-19T05:21:44;20.90;95.70
12089;DHT22;6107;49.078;8.578;2022-08-19T05:24:29;21.00;95.60
12089;DHT22;6107;49.078;8.578;2022-08-19T05:26:56;21.00;95.50
12089;DHT22;6107;49.078;8.578;2022-08-19T05:29:23;21.00;95.70
12089;DHT22;6107;49.078;8.578;2022-08-19T05:31:50;21.00;95.00
12089;DHT22;6107;49.078;8.578;2022-08-19T05:34:18;21.00;95.10
12089;DHT22;6107;49.078;8.578;2022-08-19T05:36:47;21.00;95.00
12089;DHT22;6107;49.078;8.578;2022-08-19T05:39:17;20.90;95.10
12089;DHT22;6107;49.078;8.578;2022-08-19T05:44:41;20.80;95.10
12089;DHT22;6107;49.078;8.578;2022-08-19T05:47:11;20.90;95.10
12089;DHT22;6107;49.078;8.578;2022-08-19T05:49:37;20.90;94.90
12089;DHT22;6107;49.078;8.578;2022-08-19T05:52:05;20.90;94.80
12089;DHT22;6107;49.078;8.578;2022-08-19T05:54:31;20.90;94.70
12089;DHT22;6107;49.078;8.578;2022-08-19T05:56:57;21.00;94.60
12089;DHT22;6107;49.078;8.578;2022-08-19T05:59:23;21.10;94.70
12089;DHT22;6107;49.078;8.578;2022-08-19T06:01:50;21.00;94.40
12089;DHT22;6107;49.078;8.578;2022-08-19T06:04:19;21.10;94.50
12089;DHT22;6107;49.078;8.578;2022-08-19T06:06:50;21.10;94.60
12089;DHT22;6107;49.078;8.578;2022-08-19T06:09:17;21.10;94.40
12089;DHT22;6107;49.078;8.578;2022-08-19T06:11:52;21.00;94.60
12089;DHT22;6107;49.078;8.578;2022-08-19T06:14:21;21.00;94.50
12089;DHT22;6107;49.078;8.578;2022-08-19T06:16:48;21.10;94.80
12089;DHT22;6107;49.078;8.578;2022-08-19T06:19:16;21.20;94.80
12089;DHT22;6107;49.078;8.578;2022-08-19T06:21:44;21.30;94.80
12089;DHT22;6107;49.078;8.578;2022-08-19T06:24:12;21.30;94.60
12089;DHT22;6107;49.078;8.578;2022-08-19T06:26:41;21.30;94.40
12089;DHT22;6107;49.078;8.578;2022-08-19T06:29:09;21.20;94.40
12089;DHT22;6107;49.078;8.578;2022-08-19T06:31:35;21.30;94.50
12089;DHT22;6107;49.078;8.578;2022-08-19T06:34:03;21.30;94.30
12089;DHT22;6107;49.078;8.578;2022-08-19T06:36:36;21.40;94.80
12089;DHT22;6107;49.078;8.578;2022-08-19T06:39:10;21.40;94.60
12089;DHT22;6107;49.078;8.578;2022-08-19T06:41:42;21.40;94.60
12089;DHT22;6107;49.078;8.578;2022-08-19T06:44:08;21.50;94.40
12089;DHT22;6107;49.078;8.578;2022-08-19T06:46:34;21.50;94.60
12089;DHT22;6107;49.078;8.578;2022-08-19T06:49:00;21.50;94.00
12089;DHT22;6107;49.078;8.578;2022-08-19T06:51:26;21.60;94.20
12089;DHT22;6107;49.078;8.578;2022-08-19T06:53:53;21.60;93.80
12089;DHT22;6107;49.078;8.578;2022-08-19T06:56:26;21.60;93.60
12089;DHT22;6107;49.078;8.578;2022-08-19T06:59:19;21.60;93.30
12089;DHT22;6107;49.078;8.578;2022-08-19T07:01:48;21.70;93.30
12089;DHT22;6107;49.078;8.578;2022-08-19T07:04:17;21.70;93.20
12089;DHT22;6107;49.078;8.578;2022-08-19T07:06:44;21.60;93.10
12089;DHT22;6107;49.078;8.578;2022-08-19T07:09:12;21.70;93.10
12089;DHT22;6107;49.078;8.578;2022-08-19T07:11:38;21.80;93.00
12089;DHT22;6107;49.078;8.578;2022-08-19T07:14:03;21.90;93.10
12089;DHT22;6107;49.078;8.578;2022-08-19T07:16:30;21.80;93.10
12089;DHT22;6107;49.078;8.578;2022-08-19T07:18:56;21.90;93.20
12089;DHT22;6107;49.078;8.578;2022-08-19T07:21:25;21.90;93.20
12089;DHT22;6107;49.078;8.578;2022-08-19T07:23:54;22.00;92.90
12089;DHT22;6107;49.078;8.578;2022-08-19T07:26:30;22.00;92.80
12089;DHT22;6107;49.078;8.578;2022-08-19T07:28:56;22.00;92.90
12089;DHT22;6107;49.078;8.578;2022-08-19T07:31:24;22.00;92.70
12089;DHT22;6107;49.078;8.578;2022-08-19T07:33:52;22.00;92.70
12089;DHT22;6107;49.078;8.578;2022-08-19T07:36:20;22.10;92.70
12089;DHT22;6107;49.078;8.578;2022-08-19T07:38:48;22.40;92.60
12089;DHT22;6107;49.078;8.578;2022-08-19T07:41:17;22.40;92.10
12089;DHT22;6107;49.078;8.578;2022-08-19T07:43:45;22.40;91.90
12089;DHT22;6107;49.078;8.578;2022-08-19T07:46:11;22.30;91.90
12089;DHT22;6107;49.078;8.578;2022-08-19T07:48:39;22.50;92.60
12089;DHT22;6107;49.078;8.578;2022-08-19T07:51:06;22.50;91.70
12089;DHT22;6107;49.078;8.578;2022-08-19T07:53:34;22.40;91.70
12089;DHT22;6107;49.078;8.578;2022-08-19T07:56:01;22.40;91.80
12089;DHT22;6107;49.078;8.578;2022-08-19T07:58:35;22.40;91.80
12089;DHT22;6107;49.078;8.578;2022-08-19T08:01:03;22.40;91.80
12089;DHT22;6107;49.078;8.578;2022-08-19T08:03:29;22.60;91.80
12089;DHT22;6107;49.078;8.578;2022-08-19T08:06:14;22.60;91.70
12089;DHT22;6107;49.078;8.578;2022-08-19T08:09:03;22.60;91.60
12089;DHT22;6107;49.078;8.578;2022-08-19T08:11:44;22.70;91.50
12089;DHT22;6107;49.078;8.578;2022-08-19T08:14:22;22.80;91.30
12089;DHT22;6107;49.078;8.578;2022-08-19T08:16:48;22.80;91.30
12089;DHT22;6107;49.078;8.578;2022-08-19T08:19:15;22.80;90.90
12089;DHT22;6107;49.078;8.578;2022-08-19T08:21:41;23.00;91.00
12089;DHT22;6107;49.078;8.578;2022-08-19T08:24:08;23.10;90.60
12089;DHT22;6107;49.078;8.578;2022-08-19T08:26:33;23.20;90.70
12089;DHT22;6107;49.078;8.578;2022-08-19T08:28:59;23.30;90.20
12089;DHT22;6107;49.078;8.578;2022-08-19T08:31:24;23.40;90.20
12089;DHT22;6107;49.078;8.578;2022-08-19T08:33:50;23.60;90.00
12089;DHT22;6107;49.078;8.578;2022-08-19T08:36:17;23.50;89.90
12089;DHT22;6107;49.078;8.578;2022-08-19T08:38:43;23.60;89.50
12089;DHT22;6107;49.078;8.578;2022-08-19T08:43:56;24.20;88.80
12089;DHT22;6107;49.078;8.578;2022-08-19T08:46:42;24.20;86.80
12089;DHT22;6107;49.078;8.578;2022-08-19T08:49:28;24.20;87.70
12089;DHT22;6107;49.078;8.578;2022-08-19T08:52:04;24.50;86.00
12089;DHT22;6107;49.078;8.578;2022-08-19T08:54:40;24.50;86.40
12089;DHT22;6107;49.078;8.578;2022-08-19T08:57:14;24.60;85.70
12089;DHT22;6107;49.078;8.578;2022-08-19T08:59:41;24.80;85.40
12089;DHT22;6107;49.078;8.578;2022-08-19T09:02:08;25.10;84.80
12089;DHT22;6107;49.078;8.578;2022-08-19T09:04:36;24.80;83.10
12089;DHT22;6107;49.078;8.578;2022-08-19T09:10:07;25.00;83.80
12089;DHT22;6107;49.078;8.578;2022-08-19T09:15:14;25.90;80.10
12089;DHT22;6107;49.078;8.578;2022-08-19T09:17:41;26.30;81.70
12089;DHT22;6107;49.078;8.578;2022-08-19T09:22:37;26.80;79.90
12089;DHT22;6107;49.078;8.578;2022-08-19T09:25:03;26.90;76.50
12089;DHT22;6107;49.078;8.578;2022-08-19T09:27:30;26.60;76.60
12089;DHT22;6107;49.078;8.578;2022-08-19T09:29:55;26.10;75.20
12089;DHT22;6107;49.078;8.578;2022-08-19T09:32:22;25.80;76.80
12089;DHT22;6107;49.078;8.578;2022-08-19T09:34:48;26.00;76.90
12089;DHT22;6107;49.078;8.578;2022-08-19T09:37:14;26.20;76.60
12089;DHT22;6107;49.078;8.578;2022-08-19T09:39:40;26.80;76.70
12089;DHT22;6107;49.078;8.578;2022-08-19T09:42:07;27.20;74.80
12089;DHT22;6107;49.078;8.578;2022-08-19T09:44:38;27.20;71.90
12089;DHT22;6107;49.078;8.578;2022-08-19T09:47:03;27.20;71.10
12089;DHT22;6107;49.078;8.578;2022-08-19T09:49:30;26.90;71.00
12089;DHT22;6107;49.078;8.578;2022-08-19T09:51:56;26.80;74.20
12089;DHT22;6107;49.078;8.578;2022-08-19T09:54:22;26.60;72.20
12089;DHT22;6107;49.078;8.578;2022-08-19T09:56:49;27.10;74.70
12089;DHT22;6107;49.078;8.578;2022-08-19T09:59:15;27.70;72.10
12089;DHT22;6107;49.078;8.578;2022-08-19T10:01:40;27.40;68.10
12089;DHT22;6107;49.078;8.578;2022-08-19T10:04:06;27.60;70.00
12089;DHT22;6107;49.078;8.578;2022-08-19T10:06:37;27.90;67.40
12089;DHT22;6107;49.078;8.578;2022-08-19T10:09:06;28.20;70.00
12089;DHT22;6107;49.078;8.578;2022-08-19T10:11:33;28.40;68.80
12089;DHT22;6107;49.078;8.578;2022-08-19T10:14:01;28.40;66.50
12089;DHT22;6107;49.078;8.578;2022-08-19T10:16:27;28.40;65.70
12089;DHT22;6107;49.078;8.578;2022-08-19T10:18:53;28.50;65.10
12089;DHT22;6107;49.078;8.578;2022-08-19T10:21:23;28.40;66.90
12089;DHT22;6107;49.078;8.578;2022-08-19T10:23:51;28.30;66.00
12089;DHT22;6107;49.078;8.578;2022-08-19T10:26:20;28.70;66.60
12089;DHT22;6107;49.078;8.578;2022-08-19T10:28:46;28.00;63.90
12089;DHT22;6107;49.078;8.578;2022-08-19T10:31:20;27.00;66.50
12089;DHT22;6107;49.078;8.578;2022-08-19T10:33:47;27.10;69.00
12089;DHT22;6107;49.078;8.578;2022-08-19T10:36:18;26.80;68.20
12089;DHT22;6107;49.078;8.578;2022-08-19T10:38:49;26.80;69.50
12089;DHT22;6107;49.078;8.578;2022-08-19T10:41:21;26.50;69.60
12089;DHT22;6107;49.078;8.578;2022-08-19T10:43:51;26.90;71.30
12089;DHT22;6107;49.078;8.578;2022-08-19T10:46:17;27.40;68.70
12089;DHT22;6107;49.078;8.578;2022-08-19T10:48:44;28.40;68.40
12089;DHT22;6107;49.078;8.578;2022-08-19T10:51:10;28.80;64.90
12089;DHT22;6107;49.078;8.578;2022-08-19T10:53:55;28.30;64.70
12089;DHT22;6107;49.078;8.578;2022-08-19T10:56:21;28.40;65.90
12089;DHT22;6107;49.078;8.578;2022-08-19T10:59:06;27.70;65.00
12089;DHT22;6107;49.078;8.578;2022-08-19T11:01:33;28.10;65.70
12089;DHT22;6107;49.078;8.578;2022-08-19T11:04:01;28.40;66.20
12089;DHT22;6107;49.078;8.578;2022-08-19T11:06:27;28.50;64.50
12089;DHT22;6107;49.078;8.578;2022-08-19T11:08:54;28.10;64.00
12089;DHT22;6107;49.078;8.578;2022-08-19T11:11:20;27.40;65.60
12089;DHT22;6107;49.078;8.578;2022-08-19T11:13:45;27.50;67.00
12089;DHT22;6107;49.078;8.578;2022-08-19T11:16:17;28.10;66.90
12089;DHT22;6107;49.078;8.578;2022-08-19T11:18:50;28.60;65.50
12089;DHT22;6107;49.078;8.578;2022-08-19T11:21:20;28.90;61.40
12089;DHT22;6107;49.078;8.578;2022-08-19T11:23:48;28.20;62.10
12089;DHT22;6107;49.078;8.578;2022-08-19T11:26:16;27.70;63.60
12089;DHT22;6107;49.078;8.578;2022-08-19T11:28:42;27.80;63.40
12089;DHT22;6107;49.078;8.578;2022-08-19T11:31:13;27.70;63.90
12089;DHT22;6107;49.078;8.578;2022-08-19T11:33:39;28.10;64.70
12089;DHT22;6107;49.078;8.578;2022-08-19T11:36:05;28.40;62.70
12089;DHT22;6107;49.078;8.578;2022-08-19T11:38:31;28.10;62.10
12089;DHT22;6107;49.078;8.578;2022-08-19T11:40:59;28.40;60.60
12089;DHT22;6107;49.078;8.578;2022-08-19T11:43:25;28.50;60.60
12089;DHT22;6107;49.078;8.578;2022-08-19T11:45:53;28.30;60.40
12089;DHT22;6107;49.078;8.578;2022-08-19T11:48:19;28.70;59.60
12089;DHT22;6107;49.078;8.578;2022-08-19T11:50:48;28.90;58.80
12089;DHT22;6107;49.078;8.578;2022-08-19T11:53:14;29.30;58.40
12089;DHT22;6107;49.078;8.578;2022-08-19T11:55:39;30.20;57.20
12089;DHT22;6107;49.078;8.578;2022-08-19T11:58:06;30.20;56.50
12089;DHT22;6107;49.078;8.578;2022-08-19T12:00:33;30.10;56.40
12089;DHT22;6107;49.078;8.578;2022-08-19T12:03:00;30.20;56.50
12089;DHT22;6107;49.078;8.578;2022-08-19T12:05:26;29.80;55.90
12089;DHT22;6107;49.078;8.578;2022-08-19T12:07:51;30.10;56.50
12089;DHT22;6107;49.078;8.578;2022-08-19T12:10:17;29.80;54.90
12089;DHT22;6107;49.078;8.578;2022-08-19T12:12:43;29.50;57.20
12089;DHT22;6107;49.078;8.578;2022-08-19T12:15:11;29.70;57.20
12089;DHT22;6107;49.078;8.578;2022-08-19T12:17:37;30.20;55.90
12089;DHT22;6107;49.078;8.578;2022-08-19T12:20:04;30.60;55.60
12089;DHT22;6107;49.078;8.578;2022-08-19T12:22:30;30.40;54.40
12089;DHT22;6107;49.078;8.578;2022-08-19T12:24:55;30.20;56.20
12089;DHT22;6107;49.078;8.578;2022-08-19T12:27:21;30.20;54.00
12089;DHT22;6107;49.078;8.578;2022-08-19T12:29:46;29.70;55.20
12089;DHT22;6107;49.078;8.578;2022-08-19T12:32:13;29.40;56.20
12089;DHT22;6107;49.078;8.578;2022-08-19T12:34:38;30.00;57.20
12089;DHT22;6107;49.078;8.578;2022-08-19T12:37:05;30.20;56.20
12089;DHT22;6107;49.078;8.578;2022-08-19T12:39:35;30.20;55.30
12089;DHT22;6107;49.078;8.578;2022-08-19T12:42:01;30.00;55.10
12089;DHT22;6107;49.078;8.578;2022-08-19T12:44:27;29.90;55.50
12089;DHT22;6107;49.078;8.578;2022-08-19T12:46:52;29.60;55.60
12089;DHT22;6107;49.078;8.578;2022-08-19T12:49:18;29.30;54.80
12089;DHT22;6107;49.078;8.578;2022-08-19T12:51:43;28.80;54.60
12089;DHT22;6107;49.078;8.578;2022-08-19T12:54:09;28.80;54.60
12089;DHT22;6107;49.078;8.578;2022-08-19T12:56:36;28.80;54.70
12089;DHT22;6107;49.078;8.578;2022-08-19T12:59:02;29.10;54.60
12089;DHT22;6107;49.078;8.578;2022-08-19T13:01:28;29.50;54.50
12089;DHT22;6107;49.078;8.578;2022-08-19T13:03:58;29.80;54.80
12089;DHT22;6107;49.078;8.578;2022-08-19T13:06:24;30.20;52.70
12089;DHT22;6107;49.078;8.578;2022-08-19T13:08:49;30.50;52.80
12089;DHT22;6107;49.078;8.578;2022-08-19T13:11:18;30.10;52.10
12089;DHT22;6107;49.078;8.578;2022-08-19T13:13:47;30.30;52.20
12089;DHT22;6107;49.078;8.578;2022-08-19T13:16:13;30.00;52.90
12089;DHT22;6107;49.078;8.578;2022-08-19T13:18:40;29.60;53.00
12089;DHT22;6107;49.078;8.578;2022-08-19T13:21:08;29.70;53.80
12089;DHT22;6107;49.078;8.578;2022-08-19T13:23:35;29.50;53.40
12089;DHT22;6107;49.078;8.578;2022-08-19T13:26:06;29.20;53.90
12089;DHT22;6107;49.078;8.578;2022-08-19T13:28:33;28.80;54.40
12089;DHT22;6107;49.078;8.578;2022-08-19T13:31:20;28.80;54.90
12089;DHT22;6107;49.078;8.578;2022-08-19T13:34:05;28.90;55.70
12089;DHT22;6107;49.078;8.578;2022-08-19T13:36:34;28.90;56.00
12089;DHT22;6107;49.078;8.578;2022-08-19T13:39:00;28.80;54.00
12089;DHT22;6107;49.078;8.578;2022-08-19T13:41:26;29.00;55.50
12089;DHT22;6107;49.078;8.578;2022-08-19T13:43:52;28.70;54.80
12089;DHT22;6107;49.078;8.578;2022-08-19T13:46:18;28.70;55.60
12089;DHT22;6107;49.078;8.578;2022-08-19T13:48:45;28.70;54.60
12089;DHT22;6107;49.078;8.578;2022-08-19T13:51:11;28.90;55.90
12089;DHT22;6107;49.078;8.578;2022-08-19T13:53:38;29.30;54.60
12089;DHT22;6107;49.078;8.578;2022-08-19T13:56:09;29.70;56.60
12089;DHT22;6107;49.078;8.578;2022-08-19T13:58:35;29.60;53.40
12089;DHT22;6107;49.078;8.578;2022-08-19T14:01:02;29.20;53.40
12089;DHT22;6107;49.078;8.578;2022-08-19T14:03:28;29.20;53.90
12089;DHT22;6107;49.078;8.578;2022-08-19T14:05:53;29.50;54.20
12089;DHT22;6107;49.078;8.578;2022-08-19T14:08:19;29.40;52.10
12089;DHT22;6107;49.078;8.578;2022-08-19T14:10:45;29.50;53.50
12089;DHT22;6107;49.078;8.578;2022-08-19T14:13:15;29.80;53.30
12089;DHT22;6107;49.078;8.578;2022-08-19T14:15:41;30.10;52.50
12089;DHT22;6107;49.078;8.578;2022-08-19T14:18:06;30.10;50.40
12089;DHT22;6107;49.078;8.578;2022-08-19T14:20:35;30.50;50.20
12089;DHT22;6107;49.078;8.578;2022-08-19T14:23:01;30.30;50.30
12089;DHT22;6107;49.078;8.578;2022-08-19T14:25:29;30.50;49.90
12089;DHT22;6107;49.078;8.578;2022-08-19T14:27:55;30.30;49.60
12089;DHT22;6107;49.078;8.578;2022-08-19T14:30:24;30.20;49.30
12089;DHT22;6107;49.078;8.578;2022-08-19T14:32:52;30.10;50.20
12089;DHT22;6107;49.078;8.578;2022-08-19T14:35:17;30.20;50.70
12089;DHT22;6107;49.078;8.578;2022-08-19T14:37:44;30.10;49.80
12089;DHT22;6107;49.078;8.578;2022-08-19T14:40:11;30.10;49.40
12089;DHT22;6107;49.078;8.578;2022-08-19T14:42:37;29.90;49.60
12089;DHT22;6107;49.078;8.578;2022-08-19T14:45:04;29.90;49.40
12089;DHT22;6107;49.078;8.578;2022-08-19T14:47:30;30.00;50.60
12089;DHT22;6107;49.078;8.578;2022-08-19T14:49:56;29.70;49.30
12089;DHT22;6107;49.078;8.578;2022-08-19T14:52:21;29.80;50.60
12089;DHT22;6107;49.078;8.578;2022-08-19T14:54:47;29.90;50.30
12089;DHT22;6107;49.078;8.578;2022-08-19T14:57:14;30.20;50.40
12089;DHT22;6107;49.078;8.578;2022-08-19T14:59:43;30.20;50.30
12089;DHT22;6107;49.078;8.578;2022-08-19T15:02:10;30.10;50.50
12089;DHT22;6107;49.078;8.578;2022-08-19T15:04:35;30.00;48.80
12089;DHT22;6107;49.078;8.578;2022-08-19T15:07:01;30.00;48.90
12089;DHT22;6107;49.078;8.578;2022-08-19T15:09:32;29.80;49.90
12089;DHT22;6107;49.078;8.578;2022-08-19T15:11:59;29.90;49.00
12089;DHT22;6107;49.078;8.578;2022-08-19T15:14:26;30.20;49.70
12089;DHT22;6107;49.078;8.578;2022-08-19T15:16:52;30.40;49.80
12089;DHT22;6107;49.078;8.578;2022-08-19T15:19:18;30.30;48.10
12089;DHT22;6107;49.078;8.578;2022-08-19T15:21:43;30.30;48.60
12089;DHT22;6107;49.078;8.578;2022-08-19T15:24:09;30.50;49.30
12089;DHT22;6107;49.078;8.578;2022-08-19T15:26:34;30.00;47.90
12089;DHT22;6107;49.078;8.578;2022-08-19T15:29:01;30.00;49.00
12089;DHT22;6107;49.078;8.578;2022-08-19T15:31:27;29.90;47.70
12089;DHT22;6107;49.078;8.578;2022-08-19T15:33:55;30.10;48.80
12089;DHT22;6107;49.078;8.578;2022-08-19T15:36:22;29.90;47.90
12089;DHT22;6107;49.078;8.578;2022-08-19T15:38:49;29.90;49.50
12089;DHT22;6107;49.078;8.578;2022-08-19T15:41:20;29.80;48.70
12089;DHT22;6107;49.078;8.578;2022-08-19T15:44:04;29.60;49.10
12089;DHT22;6107;49.078;8.578;2022-08-19T15:46:36;29.50;49.20
12089;DHT22;6107;49.078;8.578;2022-08-19T15:49:02;29.50;49.20
12089;DHT22;6107;49.078;8.578;2022-08-19T15:51:30;29.30;49.60
12089;DHT22;6107;49.078;8.578;2022-08-19T15:53:57;29.30;49.50
12089;DHT22;6107;49.078;8.578;2022-08-19T15:56:22;29.40;50.00
12089;DHT22;6107;49.078;8.578;2022-08-19T15:58:48;29.40;50.10
12089;DHT22;6107;49.078;8.578;2022-08-19T16:01:49;29.40;50.10
12089;DHT22;6107;49.078;8.578;2022-08-19T16:04:32;29.50;49.90